• Join FlightAware (Why Join?)
  • Login
  • US Flag 
06:22PM EDT


 

Airport Tracker/Info


-or-


 

Live Flight TrackerFlight Track Log ✈ N45NS ✈ 10-Sep-2013 ✈ CYKF - KERI

Flight Track Log - Related Links

Times and Time Zones

All times are in EDT time to prevent confusion due to time zone crossing. See the N45NS flight status page for this flight to view local times or setup timezone preferences in your user account.

Time Position Orientation Groundspeed Altitude Reporting Facility
EDT Latitude Longitude Course Direction KTS MPH feet Rate Location/Type
07:57PM 43.4436 -80.4089 173° South 350 403 2,400  Level Cleveland Center
07:58PM 43.3792 -80.3975 173° South 277 319 4,500 2,040 Climbing Cleveland Center
07:59PM 43.3144 -80.3864 173° South 253 291 6,500 2,220 Climbing Cleveland Center
08:00PM 43.2372 -80.3467 159° South 277 319 9,000 2,220 Climbing Cleveland Center
08:01PM 43.1622 -80.3100 160° South 292 336 11,000 1,380 Climbing Cleveland Center
08:02PM 43.0500 -80.2333 153° Southeast 340 391 12,000 420 Climbing Toronto Center
08:03PM 42.9500 -80.2000 166° South 350 403 12,000 -60 Level Toronto Center
08:04PM 42.8500 -80.2000 180° South 350 403 11,900 -60 Descending Toronto Center
08:05PM 42.7500 -80.2000 180° South 350 403 11,900 -300 Level Toronto Center
08:06PM 42.6908 -80.2103 187° South 352 405 11,400 -540 Descending Cleveland Center
08:07PM 42.5825 -80.2025 177° South 352 405 11,000 -600 Descending Cleveland Center
08:08PM 42.4972 -80.2003 179° South 338 389 10,200 -1,320 Descending Cleveland Center
08:09PM 42.4158 -80.1922 176° South 309 356 8,400 -1,980 Descending Cleveland Center
08:10PM 42.3386 -80.1900 179° South 286 329 6,300 -1,980 Descending Cleveland Center
08:12PM 42.2053 -80.1600 171° South 255 293 2,500 -1,380 Descending Cleveland Center
08:13PM 42.1550 -80.1267 154° Southeast 224 258 2,300 -600 Descending Cleveland Center
08:14PM 42.1111 -80.1214 175° South 163 188 1,400 -720 Descending Cleveland Center
08:15PM 42.0925 -80.1578 235° Southwest 115 132 900 -300 Descending Cleveland Center
08:16PM 42.0614 -80.1608 184° South 115 132 900  Level Cleveland Center
08:17PM 42.0667 -80.1667 323° Northwest  Level FlightAware Approximate